createdAt,value
2022-07-30T00:00:59.521Z,99.90
2022-07-30T00:03:27.682Z,99.90
2022-07-30T00:05:55.885Z,99.90
2022-07-30T00:08:26.068Z,99.90
2022-07-30T00:10:53.051Z,99.90
2022-07-30T00:13:20.078Z,99.90
2022-07-30T00:15:47.144Z,99.90
2022-07-30T00:18:14.406Z,99.90
2022-07-30T00:20:43.569Z,99.90
2022-07-30T00:23:11.890Z,99.90
2022-07-30T00:25:38.988Z,99.90
2022-07-30T00:28:06.488Z,99.90
2022-07-30T00:30:33.626Z,99.90
2022-07-30T00:33:00.716Z,99.90
2022-07-30T00:35:28.049Z,99.90
2022-07-30T00:37:55.080Z,99.90
2022-07-30T00:40:22.755Z,99.90
2022-07-30T00:42:50.081Z,99.90
2022-07-30T00:45:19.685Z,99.90
2022-07-30T00:47:46.908Z,99.90
2022-07-30T00:50:15.690Z,99.90
2022-07-30T00:52:43.442Z,99.90
2022-07-30T00:55:14.364Z,99.90
2022-07-30T00:57:42.850Z,99.90
2022-07-30T01:00:16.071Z,99.90
2022-07-30T01:02:43.485Z,99.90
2022-07-30T01:05:11.329Z,99.90
2022-07-30T01:07:38.634Z,99.90
2022-07-30T01:10:08.557Z,99.90
2022-07-30T01:12:36.044Z,99.90
2022-07-30T01:15:07.814Z,99.90
2022-07-30T01:17:36.884Z,99.90
2022-07-30T01:20:13.296Z,99.90
2022-07-30T01:23:03.017Z,99.90
2022-07-30T01:25:32.757Z,99.90
2022-07-30T01:28:12.523Z,99.90
2022-07-30T01:30:44.166Z,99.90
2022-07-30T01:33:17.031Z,99.90
2022-07-30T01:35:48.261Z,99.90
2022-07-30T01:38:19.352Z,99.90
2022-07-30T01:40:47.910Z,99.90
2022-07-30T01:43:16.363Z,99.90
2022-07-30T01:45:46.368Z,99.90
2022-07-30T01:48:20.055Z,99.90
2022-07-30T01:50:52.819Z,99.90
2022-07-30T01:53:25.639Z,99.90
2022-07-30T01:55:55.222Z,99.90
2022-07-30T01:58:28.207Z,99.90
2022-07-30T02:00:58.400Z,99.90
2022-07-30T02:03:29.652Z,99.90
2022-07-30T02:06:02.524Z,99.90
2022-07-30T02:09:10.797Z,99.90
2022-07-30T02:12:05.535Z,99.90
2022-07-30T02:15:13.701Z,99.90
2022-07-30T02:18:06.432Z,99.90
2022-07-30T02:20:35.604Z,99.90
2022-07-30T02:23:12.743Z,99.90
2022-07-30T02:25:47.199Z,99.90
2022-07-30T02:28:18.616Z,99.90
2022-07-30T02:30:53.306Z,99.90
2022-07-30T02:33:26.921Z,99.90
2022-07-30T02:35:55.497Z,99.90
2022-07-30T02:38:25.425Z,99.90
2022-07-30T02:40:54.558Z,99.90
2022-07-30T02:43:25.969Z,99.90
2022-07-30T02:45:53.920Z,99.90
2022-07-30T02:48:35.095Z,99.90
2022-07-30T02:51:05.243Z,99.90
2022-07-30T02:53:34.646Z,99.90
2022-07-30T02:56:04.324Z,99.90
2022-07-30T02:58:35.688Z,99.90
2022-07-30T03:01:03.884Z,99.90
2022-07-30T03:03:32.803Z,99.90
2022-07-30T03:06:02.437Z,99.90
2022-07-30T03:08:31.939Z,99.90
2022-07-30T03:11:00.158Z,99.90
2022-07-30T03:13:27.133Z,99.90
2022-07-30T03:15:58.198Z,99.90
2022-07-30T03:18:34.198Z,99.90
2022-07-30T03:21:03.139Z,99.90
2022-07-30T03:23:37.352Z,99.90
2022-07-30T03:26:08.685Z,99.90
2022-07-30T03:28:39.953Z,99.90
2022-07-30T03:31:10.589Z,99.90
2022-07-30T03:33:40.527Z,99.90
2022-07-30T03:36:09.916Z,99.90
2022-07-30T03:38:43.010Z,99.90
2022-07-30T03:41:10.989Z,99.90
2022-07-30T03:43:40.439Z,99.90
2022-07-30T03:46:10.039Z,99.90
2022-07-30T03:48:38.852Z,99.90
2022-07-30T03:51:11.307Z,99.90
2022-07-30T03:53:41.872Z,99.90
2022-07-30T03:56:10.070Z,99.90
2022-07-30T03:58:38.966Z,99.90
2022-07-30T04:01:05.990Z,99.90
2022-07-30T04:03:34.170Z,99.90
2022-07-30T04:06:01.594Z,99.90
2022-07-30T04:08:29.253Z,99.90
2022-07-30T04:10:56.754Z,99.90
2022-07-30T04:13:23.761Z,99.90
2022-07-30T04:16:39.189Z,99.90
2022-07-30T04:19:09.016Z,99.90
2022-07-30T04:21:38.737Z,99.90
2022-07-30T04:24:07.002Z,99.90
2022-07-30T04:26:36.658Z,99.90
2022-07-30T04:29:08.040Z,99.90
2022-07-30T04:31:41.102Z,99.90
2022-07-30T04:34:12.654Z,99.90
2022-07-30T04:36:40.278Z,99.90
2022-07-30T04:39:07.531Z,99.90
2022-07-30T04:41:48.192Z,99.90
2022-07-30T04:44:19.379Z,99.90
2022-07-30T04:46:47.661Z,99.90
2022-07-30T04:49:17.584Z,99.90
2022-07-30T04:51:46.574Z,99.90
2022-07-30T04:54:16.396Z,99.90
2022-07-30T04:56:50.272Z,99.90
2022-07-30T04:59:28.527Z,99.90
2022-07-30T05:01:59.559Z,99.90
2022-07-30T05:04:28.871Z,99.90
2022-07-30T05:06:58.816Z,99.90
2022-07-30T05:09:27.984Z,99.90
2022-07-30T05:11:57.002Z,99.90
2022-07-30T05:14:25.331Z,99.90
2022-07-30T05:16:54.857Z,99.90
2022-07-30T05:19:23.320Z,99.90
2022-07-30T05:21:50.294Z,99.90
2022-07-30T05:24:17.486Z,99.90
2022-07-30T05:26:45.361Z,99.90
2022-07-30T05:29:19.401Z,99.90
2022-07-30T05:31:47.225Z,99.90
2022-07-30T05:34:14.287Z,99.90
2022-07-30T05:36:42.780Z,99.90
2022-07-30T05:39:09.778Z,99.90
2022-07-30T05:41:36.979Z,99.90
2022-07-30T05:44:04.434Z,99.90
2022-07-30T05:46:31.738Z,99.90
2022-07-30T05:48:59.112Z,99.90
2022-07-30T05:51:26.516Z,99.90
2022-07-30T05:53:53.878Z,99.90
2022-07-30T05:56:21.012Z,99.90
2022-07-30T05:58:48.379Z,99.90
2022-07-30T06:01:15.692Z,99.90
2022-07-30T06:03:43.113Z,99.90
2022-07-30T06:06:10.343Z,99.90
2022-07-30T06:08:37.711Z,99.90
2022-07-30T06:11:05.187Z,99.90
2022-07-30T06:13:32.437Z,99.90
2022-07-30T06:16:00.122Z,99.90
2022-07-30T06:18:27.422Z,99.90
2022-07-30T06:20:55.842Z,99.90
2022-07-30T06:23:23.917Z,99.90
2022-07-30T06:25:51.537Z,99.90
2022-07-30T06:31:08.161Z,99.90
2022-07-30T06:33:35.461Z,99.90
2022-07-30T06:36:02.974Z,99.90
2022-07-30T06:38:30.339Z,99.90
2022-07-30T06:41:02.388Z,99.90
2022-07-30T06:43:30.300Z,99.90
2022-07-30T06:45:57.854Z,99.90
2022-07-30T06:48:25.059Z,99.90
2022-07-30T06:50:52.393Z,99.90
2022-07-30T06:53:19.525Z,99.90
2022-07-30T06:55:46.885Z,99.90
2022-07-30T06:58:14.008Z,99.90
2022-07-30T07:00:43.317Z,99.90
2022-07-30T07:03:12.613Z,99.90
2022-07-30T07:05:40.377Z,99.90
2022-07-30T07:08:08.968Z,99.90
2022-07-30T07:10:36.297Z,99.90
2022-07-30T07:13:04.061Z,99.90
2022-07-30T07:15:37.119Z,99.90
2022-07-30T07:18:06.761Z,99.90
2022-07-30T07:20:35.706Z,99.90
2022-07-30T07:23:08.914Z,99.90
2022-07-30T07:25:37.189Z,99.90
2022-07-30T07:28:11.809Z,99.90
2022-07-30T07:30:44.817Z,99.90
2022-07-30T07:33:12.736Z,99.90
2022-07-30T07:35:48.634Z,99.90
2022-07-30T07:38:20.048Z,99.90
2022-07-30T07:40:47.902Z,99.90
2022-07-30T07:43:17.071Z,99.90
2022-07-30T07:45:45.799Z,99.90
2022-07-30T07:48:13.465Z,99.90
2022-07-30T07:50:41.085Z,99.90
2022-07-30T07:53:08.676Z,99.90
2022-07-30T07:55:36.279Z,99.90
2022-07-30T07:58:04.199Z,99.70
2022-07-30T08:00:31.624Z,99.90
2022-07-30T08:03:01.877Z,99.90
2022-07-30T08:06:00.770Z,99.10
2022-07-30T08:08:16.871Z,99.50
2022-07-30T08:10:44.223Z,99.60
2022-07-30T08:13:49.038Z,98.20
2022-07-30T08:16:12.554Z,97.40
2022-07-30T08:18:40.855Z,98.10
2022-07-30T08:21:08.945Z,97.40
2022-07-30T08:23:39.700Z,96.80
2022-07-30T08:26:09.903Z,97.40
2022-07-30T08:28:37.414Z,95.80
2022-07-30T08:31:05.125Z,96.10
2022-07-30T08:33:32.744Z,96.40
2022-07-30T08:36:04.270Z,94.90
2022-07-30T08:38:36.923Z,95.60
2022-07-30T08:41:04.421Z,95.10
2022-07-30T08:43:31.900Z,94.40
2022-07-30T08:46:01.561Z,94.00
2022-07-30T08:48:29.979Z,94.10
2022-07-30T08:50:58.091Z,93.60
2022-07-30T08:53:25.785Z,93.40
2022-07-30T08:55:58.493Z,92.80
2022-07-30T08:58:33.724Z,93.60
2022-07-30T09:01:02.181Z,93.10
2022-07-30T09:03:30.115Z,92.00
2022-07-30T09:05:57.725Z,92.30
2022-07-30T09:08:25.087Z,91.60
2022-07-30T09:10:53.405Z,90.80
2022-07-30T09:13:28.949Z,90.90
2022-07-30T09:15:57.368Z,90.80
2022-07-30T09:18:30.751Z,90.80
2022-07-30T09:21:01.599Z,91.00
2022-07-30T09:23:29.535Z,90.10
2022-07-30T09:26:00.647Z,90.20
2022-07-30T09:28:31.708Z,90.90
2022-07-30T09:31:00.147Z,90.60
2022-07-30T09:33:44.798Z,87.70
2022-07-30T09:36:18.868Z,87.50
2022-07-30T09:38:51.764Z,85.40
2022-07-30T09:41:38.901Z,84.60
2022-07-30T09:44:07.142Z,85.90
2022-07-30T09:46:47.859Z,85.50
2022-07-30T09:49:25.611Z,85.20
2022-07-30T09:51:56.974Z,86.70
2022-07-30T09:54:51.281Z,89.20
2022-07-30T09:57:26.470Z,87.10
2022-07-30T10:00:18.655Z,85.80
2022-07-30T10:02:47.868Z,84.10
2022-07-30T10:05:19.268Z,85.20
2022-07-30T10:08:01.854Z,82.60
2022-07-30T10:10:32.971Z,79.00
2022-07-30T10:13:04.879Z,78.50
2022-07-30T10:15:37.364Z,78.40
2022-07-30T10:18:07.401Z,81.70
2022-07-30T10:20:37.779Z,82.20
2022-07-30T10:23:09.338Z,82.20
2022-07-30T10:25:49.325Z,80.20
2022-07-30T10:28:24.822Z,81.10
2022-07-30T10:30:55.073Z,81.00
2022-07-30T10:33:37.632Z,81.70
2022-07-30T10:36:11.201Z,82.00
2022-07-30T10:38:43.056Z,81.60
2022-07-30T10:41:43.146Z,81.30
2022-07-30T10:44:43.562Z,82.60
2022-07-30T10:47:18.777Z,80.70
2022-07-30T10:50:07.816Z,82.60
2022-07-30T10:53:02.805Z,82.60
2022-07-30T10:55:36.904Z,82.00
2022-07-30T10:58:15.683Z,81.70
2022-07-30T11:00:52.096Z,80.90
2022-07-30T11:03:40.433Z,80.10
2022-07-30T11:06:24.467Z,80.00
2022-07-30T11:08:57.352Z,81.90
2022-07-30T11:11:59.177Z,83.30
2022-07-30T11:14:14.923Z,81.30
2022-07-30T11:16:42.849Z,83.20
2022-07-30T11:19:54.875Z,80.50
2022-07-30T11:22:27.416Z,81.80
2022-07-30T11:24:55.128Z,82.60
2022-07-30T11:27:38.715Z,82.50
2022-07-30T11:30:18.125Z,81.50
2022-07-30T11:32:48.609Z,83.00
2022-07-30T11:35:34.888Z,81.30
2022-07-30T11:38:22.399Z,82.30
2022-07-30T11:40:49.765Z,82.10
2022-07-30T11:43:35.301Z,82.30
2022-07-30T11:46:28.705Z,82.90
2022-07-30T11:48:58.254Z,83.00
2022-07-30T11:51:26.714Z,82.00
2022-07-30T11:54:07.525Z,80.40
2022-07-30T11:56:34.999Z,82.00
2022-07-30T11:59:08.385Z,81.80
2022-07-30T12:01:36.481Z,82.30
2022-07-30T12:04:06.821Z,83.80
2022-07-30T12:06:36.590Z,81.00
2022-07-30T12:09:06.720Z,82.10
2022-07-30T12:11:37.917Z,81.90
2022-07-30T12:14:06.011Z,81.70
2022-07-30T12:16:34.797Z,82.30
2022-07-30T12:19:05.428Z,81.70
2022-07-30T12:21:33.117Z,81.40
2022-07-30T12:24:10.107Z,81.00
2022-07-30T12:26:37.837Z,81.30
2022-07-30T12:29:13.586Z,81.00
2022-07-30T12:31:42.010Z,80.00
2022-07-30T12:34:27.990Z,81.60
2022-07-30T12:36:55.468Z,81.60
2022-07-30T12:39:27.143Z,81.40
2022-07-30T12:41:58.745Z,80.80
2022-07-30T12:44:46.581Z,81.30
2022-07-30T12:47:26.223Z,80.00
2022-07-30T12:50:00.860Z,79.90
2022-07-30T12:52:32.606Z,80.10
2022-07-30T12:55:06.654Z,80.20
2022-07-30T12:58:08.732Z,80.20
2022-07-30T13:00:53.105Z,79.90
2022-07-30T13:03:27.287Z,79.60
2022-07-30T13:05:57.336Z,81.10
2022-07-30T13:08:46.147Z,80.90
2022-07-30T13:11:14.583Z,80.30
2022-07-30T13:13:41.963Z,80.80
2022-07-30T13:16:10.885Z,81.60
2022-07-30T13:18:38.348Z,82.30
2022-07-30T13:21:10.518Z,81.60
2022-07-30T13:23:41.616Z,82.50
2022-07-30T13:26:10.523Z,83.80
2022-07-30T13:28:38.256Z,86.70
2022-07-30T13:31:07.778Z,86.90
2022-07-30T13:33:37.284Z,85.50
2022-07-30T13:36:05.993Z,86.30
2022-07-30T13:38:34.054Z,87.10
2022-07-30T13:41:02.975Z,86.30
2022-07-30T13:43:33.780Z,84.10
2022-07-30T13:46:03.270Z,83.50
2022-07-30T13:48:30.714Z,86.40
2022-07-30T13:50:58.215Z,88.20
2022-07-30T13:53:25.810Z,88.60
2022-07-30T13:55:53.157Z,89.00
2022-07-30T13:58:20.778Z,88.00
2022-07-30T14:00:48.488Z,88.30
2022-07-30T14:03:16.078Z,90.00
2022-07-30T14:05:43.589Z,88.60
2022-07-30T14:08:12.262Z,88.40
2022-07-30T14:10:40.954Z,89.40
2022-07-30T14:13:19.182Z,89.70
2022-07-30T14:15:48.749Z,89.30
2022-07-30T14:18:16.109Z,89.50
2022-07-30T14:20:46.879Z,90.10
2022-07-30T14:23:16.609Z,89.90
2022-07-30T14:25:44.447Z,90.00
2022-07-30T14:28:11.677Z,90.30
2022-07-30T14:30:39.154Z,89.60
2022-07-30T14:33:06.414Z,90.40
2022-07-30T14:35:33.778Z,90.80
2022-07-30T14:38:03.200Z,90.80
2022-07-30T14:40:30.779Z,91.60
2022-07-30T14:42:58.184Z,91.00
2022-07-30T14:45:25.753Z,91.50
2022-07-30T14:47:53.698Z,91.20
2022-07-30T14:50:21.177Z,91.40
2022-07-30T14:52:48.926Z,91.70
2022-07-30T14:55:16.377Z,91.30
2022-07-30T14:57:43.744Z,91.70
2022-07-30T15:00:12.303Z,91.30
2022-07-30T15:02:40.990Z,91.60
2022-07-30T15:05:09.553Z,91.60
2022-07-30T15:07:37.524Z,91.40
2022-07-30T15:10:07.636Z,91.90
2022-07-30T15:12:37.672Z,91.70
2022-07-30T15:15:07.787Z,91.40
2022-07-30T15:17:38.900Z,91.50
2022-07-30T15:20:09.107Z,91.70
2022-07-30T15:22:36.953Z,91.80
2022-07-30T15:25:06.696Z,91.40
2022-07-30T15:27:34.602Z,91.30
2022-07-30T15:30:02.721Z,91.60
2022-07-30T15:32:30.004Z,91.40
2022-07-30T15:34:58.808Z,91.10
2022-07-30T15:37:26.766Z,91.40
2022-07-30T15:39:54.231Z,91.70
2022-07-30T15:42:22.336Z,91.80
2022-07-30T15:45:14.322Z,91.90
2022-07-30T15:47:37.683Z,91.70
2022-07-30T15:50:07.924Z,92.20
2022-07-30T15:52:37.698Z,92.20
2022-07-30T15:55:06.866Z,92.20
2022-07-30T15:57:34.229Z,92.10
2022-07-30T16:00:02.082Z,92.10
2022-07-30T16:02:29.433Z,92.40
2022-07-30T16:04:56.790Z,92.00
2022-07-30T16:07:24.167Z,92.30
2022-07-30T16:09:51.530Z,92.60
2022-07-30T16:12:19.241Z,92.60
2022-07-30T16:14:46.738Z,92.80
2022-07-30T16:17:15.178Z,92.50
2022-07-30T16:19:45.153Z,92.80
2022-07-30T16:22:22.060Z,92.40
2022-07-30T16:24:52.035Z,92.70
2022-07-30T16:27:19.761Z,92.60
2022-07-30T16:29:47.129Z,92.70
2022-07-30T16:32:14.357Z,93.10
2022-07-30T16:34:41.727Z,93.10
2022-07-30T16:37:09.844Z,93.40
2022-07-30T16:39:37.051Z,93.30
2022-07-30T16:42:04.891Z,93.40
2022-07-30T16:44:34.160Z,93.50
2022-07-30T16:47:01.532Z,93.60
2022-07-30T16:49:30.338Z,93.80
2022-07-30T16:51:58.044Z,93.60
2022-07-30T16:54:25.420Z,93.80
2022-07-30T16:56:53.008Z,93.90
2022-07-30T16:59:21.687Z,94.00
2022-07-30T17:01:49.680Z,93.90
2022-07-30T17:04:17.798Z,94.10
2022-07-30T17:06:45.000Z,94.30
2022-07-30T17:09:15.905Z,94.50
2022-07-30T17:11:46.513Z,94.70
2022-07-30T17:14:14.900Z,95.00
2022-07-30T17:16:42.390Z,94.80
2022-07-30T17:19:09.948Z,95.00
2022-07-30T17:21:38.227Z,95.50
2022-07-30T17:24:11.466Z,95.50
2022-07-30T17:26:43.176Z,95.70
2022-07-30T17:29:14.969Z,96.00
2022-07-30T17:31:46.241Z,96.30
2022-07-30T17:34:18.410Z,96.30
2022-07-30T17:36:51.530Z,96.50
2022-07-30T17:40:27.183Z,96.60
2022-07-30T17:42:11.873Z,96.90
2022-07-30T17:44:41.942Z,97.00
2022-07-30T17:47:15.101Z,97.40
2022-07-30T17:49:44.565Z,97.70
2022-07-30T17:52:11.931Z,98.00
2022-07-30T17:54:39.295Z,98.40
2022-07-30T17:57:06.779Z,98.60
2022-07-30T17:59:34.138Z,98.80
2022-07-30T18:02:01.815Z,98.80
2022-07-30T18:04:29.261Z,98.80
2022-07-30T18:06:56.591Z,99.10
2022-07-30T18:09:24.418Z,99.30
2022-07-30T18:11:51.791Z,99.60
2022-07-30T18:14:19.395Z,99.80
2022-07-30T18:16:46.781Z,99.90
2022-07-30T18:19:22.813Z,99.90
2022-07-30T18:21:57.575Z,99.90
2022-07-30T18:24:29.502Z,99.90
2022-07-30T18:26:56.888Z,99.90
2022-07-30T18:29:24.100Z,99.90
2022-07-30T18:31:53.232Z,99.90
2022-07-30T18:34:20.545Z,99.90
2022-07-30T18:36:51.245Z,99.90
2022-07-30T18:39:19.432Z,99.90
2022-07-30T18:41:46.926Z,99.90
2022-07-30T18:44:16.916Z,99.90
2022-07-30T18:46:44.163Z,99.90
2022-07-30T18:49:34.315Z,99.90
2022-07-30T18:52:01.343Z,99.90
2022-07-30T18:54:30.269Z,99.90
2022-07-30T18:56:57.614Z,99.90
2022-07-30T18:59:25.079Z,99.90
2022-07-30T19:01:52.353Z,99.90
2022-07-30T19:04:19.843Z,99.90
2022-07-30T19:06:47.312Z,99.90
2022-07-30T19:09:17.571Z,99.90
2022-07-30T19:11:48.753Z,99.90
2022-07-30T19:14:16.602Z,99.90
2022-07-30T19:16:44.927Z,99.90
2022-07-30T19:19:13.736Z,99.90
2022-07-30T19:21:42.039Z,99.90
2022-07-30T19:24:10.066Z,99.90
2022-07-30T19:26:39.813Z,99.90
2022-07-30T19:29:08.152Z,99.90
2022-07-30T19:31:36.278Z,99.90
2022-07-30T19:34:04.481Z,99.90
2022-07-30T19:36:31.982Z,99.90
2022-07-30T19:38:59.344Z,99.90
2022-07-30T19:41:40.818Z,99.90
2022-07-30T19:44:10.536Z,99.90
2022-07-30T19:46:38.843Z,99.90
2022-07-30T19:49:09.629Z,99.90
2022-07-30T19:52:07.288Z,99.90
2022-07-30T19:54:25.747Z,99.90
2022-07-30T19:56:53.235Z,99.90
2022-07-30T19:59:45.312Z,99.90
2022-07-30T20:02:13.540Z,99.90
2022-07-30T20:04:43.628Z,99.90
2022-07-30T20:07:11.374Z,99.90
2022-07-30T20:09:42.729Z,99.90
2022-07-30T20:12:11.021Z,99.90
2022-07-30T20:14:38.282Z,99.90
2022-07-30T20:17:10.775Z,99.90
2022-07-30T20:19:38.273Z,99.90
2022-07-30T20:22:14.987Z,99.90
2022-07-30T20:24:42.846Z,99.90
2022-07-30T20:27:38.429Z,99.90
2022-07-30T20:29:59.160Z,99.90
2022-07-30T20:32:27.020Z,99.90
2022-07-30T20:34:54.277Z,99.90
2022-07-30T20:37:22.505Z,99.90
2022-07-30T20:39:50.291Z,99.90
2022-07-30T20:42:18.656Z,99.90
2022-07-30T20:44:50.833Z,99.90
2022-07-30T20:47:26.275Z,99.90
2022-07-30T20:50:09.422Z,99.90
2022-07-30T20:52:40.487Z,99.90
2022-07-30T20:55:14.374Z,99.90
2022-07-30T20:58:00.367Z,99.90
2022-07-30T21:00:34.705Z,99.90
2022-07-30T21:03:03.137Z,99.90
2022-07-30T21:05:36.635Z,99.90
2022-07-30T21:08:04.374Z,99.90
2022-07-30T21:10:33.898Z,99.90
2022-07-30T21:13:03.540Z,99.90
2022-07-30T21:15:36.412Z,99.90
2022-07-30T21:18:13.394Z,99.90
2022-07-30T21:20:40.768Z,99.90
2022-07-30T21:23:20.648Z,99.90
2022-07-30T21:26:02.022Z,99.90
2022-07-30T21:28:35.812Z,99.90
2022-07-30T21:31:06.925Z,99.90
2022-07-30T21:33:36.680Z,99.90
2022-07-30T21:36:05.122Z,99.90
2022-07-30T21:38:38.733Z,99.90
2022-07-30T21:41:14.084Z,99.90
2022-07-30T21:43:44.147Z,99.90
2022-07-30T21:46:12.337Z,99.90
2022-07-30T21:48:41.112Z,99.90
2022-07-30T21:51:08.748Z,99.90
2022-07-30T21:53:45.288Z,99.90
2022-07-30T21:56:15.915Z,99.90
2022-07-30T21:58:44.548Z,99.90
2022-07-30T22:01:16.936Z,99.90
2022-07-30T22:06:41.130Z,99.90
2022-07-30T22:09:19.170Z,99.90
2022-07-30T22:12:09.070Z,99.90
2022-07-30T22:14:39.504Z,99.90
2022-07-30T22:17:22.724Z,99.90
2022-07-30T22:19:51.975Z,99.90
2022-07-30T22:22:26.078Z,99.90
2022-07-30T22:24:55.485Z,99.90
2022-07-30T22:27:25.475Z,99.90
2022-07-30T22:29:55.824Z,99.90
2022-07-30T22:32:24.515Z,99.90
2022-07-30T22:34:52.944Z,99.90
2022-07-30T22:37:21.595Z,99.90
2022-07-30T22:39:51.435Z,99.90
2022-07-30T22:42:24.034Z,99.90
2022-07-30T22:44:52.969Z,99.90
2022-07-30T22:47:21.562Z,99.90
2022-07-30T22:50:08.643Z,99.90
2022-07-30T22:52:44.398Z,99.90
2022-07-30T22:55:24.762Z,99.90
2022-07-30T22:57:53.091Z,99.90
2022-07-30T23:00:27.104Z,99.90
2022-07-30T23:02:57.087Z,99.90
2022-07-30T23:05:25.505Z,99.90
2022-07-30T23:07:53.486Z,99.90
2022-07-30T23:12:28.192Z,99.90
2022-07-30T23:12:31.003Z,99.90
2022-07-30T23:15:35.498Z,99.90
2022-07-30T23:18:03.447Z,99.90
2022-07-30T23:20:30.924Z,99.90
2022-07-30T23:22:58.311Z,99.90
2022-07-30T23:25:34.543Z,99.90
2022-07-30T23:28:06.453Z,99.90
2022-07-30T23:30:34.474Z,99.90
2022-07-30T23:33:02.044Z,99.90
2022-07-30T23:35:29.194Z,99.90
2022-07-30T23:37:57.466Z,99.90
2022-07-30T23:40:24.831Z,99.90
2022-07-30T23:42:52.702Z,99.90
2022-07-30T23:45:20.276Z,99.90
2022-07-30T23:48:00.994Z,99.90
2022-07-30T23:50:32.240Z,99.90
2022-07-30T23:53:00.852Z,99.90
2022-07-30T23:55:29.405Z,99.90
2022-07-30T23:57:58.083Z,99.90
